sensor_id;sensor_type;location;lat;lon;timestamp;P1;durP1;ratioP1;P2;durP2;ratioP2
8415;SDS011;4245;42.120;24.732;2023-08-06T00:00:37;8.20;;;7.40;;
8415;SDS011;4245;42.120;24.732;2023-08-06T00:03:05;10.10;;;7.80;;
8415;SDS011;4245;42.120;24.732;2023-08-06T00:05:32;9.83;;;7.23;;
8415;SDS011;4245;42.120;24.732;2023-08-06T00:07:59;10.07;;;7.63;;
8415;SDS011;4245;42.120;24.732;2023-08-06T00:10:26;9.77;;;8.03;;
8415;SDS011;4245;42.120;24.732;2023-08-06T00:12:53;11.33;;;8.27;;
8415;SDS011;4245;42.120;24.732;2023-08-06T00:15:20;11.97;;;7.83;;
8415;SDS011;4245;42.120;24.732;2023-08-06T00:17:47;9.03;;;7.50;;
8415;SDS011;4245;42.120;24.732;2023-08-06T00:20:15;10.93;;;7.93;;
8415;SDS011;4245;42.120;24.732;2023-08-06T00:22:42;15.67;;;8.60;;
8415;SDS011;4245;42.120;24.732;2023-08-06T00:25:09;10.07;;;8.30;;
8415;SDS011;4245;42.120;24.732;2023-08-06T00:27:36;9.27;;;8.20;;
8415;SDS011;4245;42.120;24.732;2023-08-06T00:30:03;10.97;;;8.47;;
8415;SDS011;4245;42.120;24.732;2023-08-06T00:32:31;9.93;;;7.70;;
8415;SDS011;4245;42.120;24.732;2023-08-06T00:34:58;12.50;;;8.10;;
8415;SDS011;4245;42.120;24.732;2023-08-06T00:37:26;12.30;;;8.10;;
8415;SDS011;4245;42.120;24.732;2023-08-06T00:39:53;10.57;;;8.30;;
8415;SDS011;4245;42.120;24.732;2023-08-06T00:42:20;10.02;;;7.80;;
8415;SDS011;4245;42.120;24.732;2023-08-06T00:44:47;8.83;;;7.77;;
8415;SDS011;4245;42.120;24.732;2023-08-06T00:47:14;12.47;;;7.63;;
8415;SDS011;4245;42.120;24.732;2023-08-06T00:49:42;12.77;;;8.17;;
8415;SDS011;4245;42.120;24.732;2023-08-06T00:52:09;12.47;;;8.00;;
8415;SDS011;4245;42.120;24.732;2023-08-06T00:54:39;11.23;;;8.93;;
8415;SDS011;4245;42.120;24.732;2023-08-06T00:57:07;10.17;;;8.30;;
8415;SDS011;4245;42.120;24.732;2023-08-06T00:59:35;10.07;;;8.13;;
8415;SDS011;4245;42.120;24.732;2023-08-06T01:02:02;10.70;;;7.93;;
8415;SDS011;4245;42.120;24.732;2023-08-06T01:04:29;13.20;;;8.47;;
8415;SDS011;4245;42.120;24.732;2023-08-06T01:07:01;11.80;;;7.97;;
8415;SDS011;4245;42.120;24.732;2023-08-06T01:09:40;13.37;;;7.87;;
8415;SDS011;4245;42.120;24.732;2023-08-06T01:12:18;12.73;;;8.67;;
8415;SDS011;4245;42.120;24.732;2023-08-06T01:14:53;12.30;;;8.73;;
8415;SDS011;4245;42.120;24.732;2023-08-06T01:17:25;9.63;;;8.40;;
8415;SDS011;4245;42.120;24.732;2023-08-06T01:19:53;9.87;;;7.97;;
8415;SDS011;4245;42.120;24.732;2023-08-06T01:22:21;11.27;;;9.20;;
8415;SDS011;4245;42.120;24.732;2023-08-06T01:24:48;14.17;;;8.73;;
8415;SDS011;4245;42.120;24.732;2023-08-06T01:27:18;9.83;;;8.83;;
8415;SDS011;4245;42.120;24.732;2023-08-06T01:29:54;12.83;;;9.40;;
8415;SDS011;4245;42.120;24.732;2023-08-06T01:32:29;13.90;;;9.40;;
8415;SDS011;4245;42.120;24.732;2023-08-06T01:35:00;14.20;;;9.47;;
8415;SDS011;4245;42.120;24.732;2023-08-06T01:37:30;11.23;;;8.70;;
8415;SDS011;4245;42.120;24.732;2023-08-06T01:39:58;12.93;;;9.27;;
8415;SDS011;4245;42.120;24.732;2023-08-06T01:42:24;14.17;;;9.57;;
8415;SDS011;4245;42.120;24.732;2023-08-06T01:44:51;10.83;;;8.87;;
8415;SDS011;4245;42.120;24.732;2023-08-06T01:47:18;11.63;;;9.03;;
8415;SDS011;4245;42.120;24.732;2023-08-06T01:49:45;11.07;;;9.37;;
8415;SDS011;4245;42.120;24.732;2023-08-06T01:52:13;13.13;;;9.30;;
8415;SDS011;4245;42.120;24.732;2023-08-06T01:54:41;11.20;;;9.03;;
8415;SDS011;4245;42.120;24.732;2023-08-06T01:57:08;13.10;;;9.43;;
8415;SDS011;4245;42.120;24.732;2023-08-06T01:59:35;11.77;;;8.87;;
8415;SDS011;4245;42.120;24.732;2023-08-06T02:02:02;14.40;;;9.47;;
8415;SDS011;4245;42.120;24.732;2023-08-06T02:04:29;13.83;;;9.80;;
8415;SDS011;4245;42.120;24.732;2023-08-06T02:06:56;15.80;;;9.70;;
8415;SDS011;4245;42.120;24.732;2023-08-06T02:09:22;12.67;;;9.93;;
8415;SDS011;4245;42.120;24.732;2023-08-06T02:11:51;13.00;;;10.07;;
8415;SDS011;4245;42.120;24.732;2023-08-06T02:14:18;13.17;;;10.27;;
8415;SDS011;4245;42.120;24.732;2023-08-06T02:16:45;12.07;;;9.20;;
8415;SDS011;4245;42.120;24.732;2023-08-06T02:19:11;14.90;;;9.87;;
8415;SDS011;4245;42.120;24.732;2023-08-06T02:21:38;12.87;;;10.63;;
8415;SDS011;4245;42.120;24.732;2023-08-06T02:24:05;19.10;;;11.27;;
8415;SDS011;4245;42.120;24.732;2023-08-06T02:26:32;16.90;;;10.57;;
8415;SDS011;4245;42.120;24.732;2023-08-06T02:29:00;12.43;;;11.03;;
8415;SDS011;4245;42.120;24.732;2023-08-06T02:31:27;17.97;;;12.30;;
8415;SDS011;4245;42.120;24.732;2023-08-06T02:33:54;15.67;;;12.73;;
8415;SDS011;4245;42.120;24.732;2023-08-06T02:36:22;18.93;;;13.23;;
8415;SDS011;4245;42.120;24.732;2023-08-06T02:38:49;18.30;;;13.13;;
8415;SDS011;4245;42.120;24.732;2023-08-06T02:41:16;19.07;;;13.57;;
8415;SDS011;4245;42.120;24.732;2023-08-06T02:43:43;21.57;;;14.63;;
8415;SDS011;4245;42.120;24.732;2023-08-06T02:46:11;16.40;;;13.23;;
8415;SDS011;4245;42.120;24.732;2023-08-06T02:48:38;18.60;;;14.03;;
8415;SDS011;4245;42.120;24.732;2023-08-06T02:51:05;19.33;;;14.43;;
8415;SDS011;4245;42.120;24.732;2023-08-06T02:53:32;15.90;;;13.40;;
8415;SDS011;4245;42.120;24.732;2023-08-06T02:55:58;16.67;;;13.97;;
8415;SDS011;4245;42.120;24.732;2023-08-06T02:58:25;15.97;;;14.17;;
8415;SDS011;4245;42.120;24.732;2023-08-06T03:01:01;21.40;;;14.63;;
8415;SDS011;4245;42.120;24.732;2023-08-06T03:03:30;19.90;;;15.27;;
8415;SDS011;4245;42.120;24.732;2023-08-06T03:05:57;19.50;;;15.43;;
8415;SDS011;4245;42.120;24.732;2023-08-06T03:08:23;19.13;;;15.90;;
8415;SDS011;4245;42.120;24.732;2023-08-06T03:10:51;22.50;;;16.80;;
8415;SDS011;4245;42.120;24.732;2023-08-06T03:13:18;20.40;;;16.13;;
8415;SDS011;4245;42.120;24.732;2023-08-06T03:15:51;19.63;;;15.27;;
8415;SDS011;4245;42.120;24.732;2023-08-06T03:18:19;22.30;;;16.07;;
8415;SDS011;4245;42.120;24.732;2023-08-06T03:20:47;19.30;;;16.50;;
8415;SDS011;4245;42.120;24.732;2023-08-06T03:23:14;19.37;;;15.97;;
8415;SDS011;4245;42.120;24.732;2023-08-06T03:25:41;17.67;;;15.87;;
8415;SDS011;4245;42.120;24.732;2023-08-06T03:28:08;17.20;;;15.40;;
8415;SDS011;4245;42.120;24.732;2023-08-06T03:30:35;17.43;;;15.00;;
8415;SDS011;4245;42.120;24.732;2023-08-06T03:33:02;19.70;;;15.10;;
8415;SDS011;4245;42.120;24.732;2023-08-06T03:35:29;20.90;;;15.90;;
8415;SDS011;4245;42.120;24.732;2023-08-06T03:37:58;19.47;;;15.57;;
8415;SDS011;4245;42.120;24.732;2023-08-06T03:40:24;18.30;;;15.50;;
8415;SDS011;4245;42.120;24.732;2023-08-06T03:42:51;18.50;;;15.70;;
8415;SDS011;4245;42.120;24.732;2023-08-06T03:45:18;19.67;;;15.80;;
8415;SDS011;4245;42.120;24.732;2023-08-06T03:47:45;18.77;;;16.10;;
8415;SDS011;4245;42.120;24.732;2023-08-06T03:50:12;22.77;;;17.40;;
8415;SDS011;4245;42.120;24.732;2023-08-06T03:52:39;23.13;;;16.90;;
8415;SDS011;4245;42.120;24.732;2023-08-06T03:55:09;20.20;;;16.90;;
8415;SDS011;4245;42.120;24.732;2023-08-06T03:57:36;23.73;;;18.27;;
8415;SDS011;4245;42.120;24.732;2023-08-06T04:00:03;22.50;;;17.77;;
8415;SDS011;4245;42.120;24.732;2023-08-06T04:02:30;21.33;;;17.63;;
8415;SDS011;4245;42.120;24.732;2023-08-06T04:04:57;21.87;;;18.30;;
8415;SDS011;4245;42.120;24.732;2023-08-06T04:07:24;22.17;;;18.53;;
8415;SDS011;4245;42.120;24.732;2023-08-06T04:09:54;20.60;;;18.60;;
8415;SDS011;4245;42.120;24.732;2023-08-06T04:12:23;20.53;;;18.30;;
8415;SDS011;4245;42.120;24.732;2023-08-06T04:14:50;23.33;;;17.80;;
8415;SDS011;4245;42.120;24.732;2023-08-06T04:17:18;20.77;;;18.37;;
8415;SDS011;4245;42.120;24.732;2023-08-06T04:19:47;23.27;;;19.00;;
8415;SDS011;4245;42.120;24.732;2023-08-06T04:22:15;21.73;;;18.70;;
8415;SDS011;4245;42.120;24.732;2023-08-06T04:24:42;26.30;;;20.27;;
8415;SDS011;4245;42.120;24.732;2023-08-06T04:27:09;24.80;;;19.10;;
8415;SDS011;4245;42.120;24.732;2023-08-06T04:29:38;25.10;;;19.33;;
8415;SDS011;4245;42.120;24.732;2023-08-06T04:32:05;23.17;;;18.93;;
8415;SDS011;4245;42.120;24.732;2023-08-06T04:34:33;24.17;;;18.93;;
8415;SDS011;4245;42.120;24.732;2023-08-06T04:37:01;24.07;;;20.27;;
8415;SDS011;4245;42.120;24.732;2023-08-06T04:39:28;24.83;;;20.37;;
8415;SDS011;4245;42.120;24.732;2023-08-06T04:41:55;23.97;;;19.20;;
8415;SDS011;4245;42.120;24.732;2023-08-06T04:44:23;21.43;;;19.10;;
8415;SDS011;4245;42.120;24.732;2023-08-06T04:46:51;23.90;;;19.23;;
8415;SDS011;4245;42.120;24.732;2023-08-06T04:49:19;21.90;;;18.20;;
8415;SDS011;4245;42.120;24.732;2023-08-06T04:51:46;20.87;;;18.63;;
8415;SDS011;4245;42.120;24.732;2023-08-06T04:54:13;22.47;;;18.23;;
8415;SDS011;4245;42.120;24.732;2023-08-06T04:56:40;25.37;;;20.30;;
8415;SDS011;4245;42.120;24.732;2023-08-06T04:59:07;25.57;;;21.27;;
8415;SDS011;4245;42.120;24.732;2023-08-06T05:01:34;22.33;;;19.47;;
8415;SDS011;4245;42.120;24.732;2023-08-06T05:04:03;22.17;;;19.87;;
8415;SDS011;4245;42.120;24.732;2023-08-06T05:06:30;27.37;;;21.57;;
8415;SDS011;4245;42.120;24.732;2023-08-06T05:08:56;24.10;;;20.23;;
8415;SDS011;4245;42.120;24.732;2023-08-06T05:11:23;26.70;;;22.17;;
8415;SDS011;4245;42.120;24.732;2023-08-06T05:13:50;26.50;;;22.17;;
8415;SDS011;4245;42.120;24.732;2023-08-06T05:16:17;26.73;;;23.73;;
8415;SDS011;4245;42.120;24.732;2023-08-06T05:18:44;30.53;;;22.83;;
8415;SDS011;4245;42.120;24.732;2023-08-06T05:21:12;24.63;;;21.67;;
8415;SDS011;4245;42.120;24.732;2023-08-06T05:23:41;17.37;;;12.83;;
8415;SDS011;4245;42.120;24.732;2023-08-06T05:26:08;11.10;;;8.50;;
8415;SDS011;4245;42.120;24.732;2023-08-06T05:28:35;13.67;;;7.67;;
8415;SDS011;4245;42.120;24.732;2023-08-06T05:31:05;11.97;;;8.50;;
8415;SDS011;4245;42.120;24.732;2023-08-06T05:33:32;11.37;;;8.90;;
8415;SDS011;4245;42.120;24.732;2023-08-06T05:35:59;11.23;;;9.20;;
8415;SDS011;4245;42.120;24.732;2023-08-06T05:38:27;14.60;;;7.60;;
8415;SDS011;4245;42.120;24.732;2023-08-06T05:40:55;8.77;;;7.30;;
8415;SDS011;4245;42.120;24.732;2023-08-06T05:43:22;9.23;;;7.23;;
8415;SDS011;4245;42.120;24.732;2023-08-06T05:45:49;11.63;;;6.97;;
8415;SDS011;4245;42.120;24.732;2023-08-06T05:48:16;8.50;;;7.37;;
8415;SDS011;4245;42.120;24.732;2023-08-06T05:50:43;9.80;;;7.63;;
8415;SDS011;4245;42.120;24.732;2023-08-06T05:53:10;10.93;;;7.53;;
8415;SDS011;4245;42.120;24.732;2023-08-06T05:55:39;10.80;;;7.20;;
8415;SDS011;4245;42.120;24.732;2023-08-06T05:58:06;10.57;;;7.57;;
8415;SDS011;4245;42.120;24.732;2023-08-06T06:00:33;12.17;;;7.80;;
8415;SDS011;4245;42.120;24.732;2023-08-06T06:03:00;9.97;;;8.00;;
8415;SDS011;4245;42.120;24.732;2023-08-06T06:05:28;13.53;;;8.20;;
8415;SDS011;4245;42.120;24.732;2023-08-06T06:07:55;12.47;;;7.87;;
8415;SDS011;4245;42.120;24.732;2023-08-06T06:10:22;9.67;;;7.80;;
8415;SDS011;4245;42.120;24.732;2023-08-06T06:12:50;9.93;;;7.70;;
8415;SDS011;4245;42.120;24.732;2023-08-06T06:15:17;11.83;;;8.90;;
8415;SDS011;4245;42.120;24.732;2023-08-06T06:17:44;11.43;;;7.83;;
8415;SDS011;4245;42.120;24.732;2023-08-06T06:20:11;10.83;;;7.97;;
8415;SDS011;4245;42.120;24.732;2023-08-06T06:22:38;7.87;;;6.97;;
8415;SDS011;4245;42.120;24.732;2023-08-06T06:25:05;8.87;;;7.30;;
8415;SDS011;4245;42.120;24.732;2023-08-06T06:27:32;9.77;;;7.67;;
8415;SDS011;4245;42.120;24.732;2023-08-06T06:30:01;11.83;;;9.33;;
8415;SDS011;4245;42.120;24.732;2023-08-06T06:32:29;12.40;;;8.10;;
8415;SDS011;4245;42.120;24.732;2023-08-06T06:34:56;10.23;;;7.27;;
8415;SDS011;4245;42.120;24.732;2023-08-06T06:37:23;10.30;;;8.70;;
8415;SDS011;4245;42.120;24.732;2023-08-06T06:39:50;10.63;;;8.30;;
8415;SDS011;4245;42.120;24.732;2023-08-06T06:42:17;12.00;;;8.47;;
8415;SDS011;4245;42.120;24.732;2023-08-06T06:47:21;9.33;;;8.33;;
8415;SDS011;4245;42.120;24.732;2023-08-06T06:49:47;14.17;;;9.80;;
8415;SDS011;4245;42.120;24.732;2023-08-06T06:52:14;11.27;;;8.43;;
8415;SDS011;4245;42.120;24.732;2023-08-06T06:54:41;14.00;;;9.17;;
8415;SDS011;4245;42.120;24.732;2023-08-06T06:57:08;12.40;;;8.50;;
8415;SDS011;4245;42.120;24.732;2023-08-06T06:59:35;11.70;;;9.13;;
8415;SDS011;4245;42.120;24.732;2023-08-06T07:02:03;13.10;;;8.50;;
8415;SDS011;4245;42.120;24.732;2023-08-06T07:04:32;12.30;;;9.73;;
8415;SDS011;4245;42.120;24.732;2023-08-06T07:06:59;9.97;;;8.93;;
8415;SDS011;4245;42.120;24.732;2023-08-06T07:09:26;12.37;;;9.33;;
8415;SDS011;4245;42.120;24.732;2023-08-06T07:11:52;10.70;;;8.10;;
8415;SDS011;4245;42.120;24.732;2023-08-06T07:14:19;9.77;;;8.53;;
8415;SDS011;4245;42.120;24.732;2023-08-06T07:16:46;17.23;;;9.60;;
8415;SDS011;4245;42.120;24.732;2023-08-06T07:19:13;10.10;;;8.87;;
8415;SDS011;4245;42.120;24.732;2023-08-06T07:21:41;12.03;;;9.70;;
8415;SDS011;4245;42.120;24.732;2023-08-06T07:24:08;12.30;;;9.43;;
8415;SDS011;4245;42.120;24.732;2023-08-06T07:26:35;12.13;;;9.05;;
8415;SDS011;4245;42.120;24.732;2023-08-06T07:29:02;12.95;;;9.20;;
8415;SDS011;4245;42.120;24.732;2023-08-06T07:31:29;12.38;;;9.05;;
8415;SDS011;4245;42.120;24.732;2023-08-06T07:33:56;11.63;;;10.43;;
8415;SDS011;4245;42.120;24.732;2023-08-06T07:36:23;10.57;;;9.52;;
8415;SDS011;4245;42.120;24.732;2023-08-06T07:38:51;12.82;;;9.95;;
8415;SDS011;4245;42.120;24.732;2023-08-06T07:41:21;12.77;;;9.40;;
8415;SDS011;4245;42.120;24.732;2023-08-06T07:43:48;13.00;;;10.40;;
8415;SDS011;4245;42.120;24.732;2023-08-06T07:46:14;12.80;;;10.00;;
8415;SDS011;4245;42.120;24.732;2023-08-06T07:48:41;12.23;;;10.55;;
8415;SDS011;4245;42.120;24.732;2023-08-06T07:51:08;10.68;;;9.68;;
8415;SDS011;4245;42.120;24.732;2023-08-06T07:53:35;10.57;;;9.57;;
8415;SDS011;4245;42.120;24.732;2023-08-06T07:56:04;12.45;;;10.07;;
8415;SDS011;4245;42.120;24.732;2023-08-06T07:58:31;14.93;;;9.98;;
8415;SDS011;4245;42.120;24.732;2023-08-06T08:00:58;11.52;;;10.35;;
8415;SDS011;4245;42.120;24.732;2023-08-06T08:03:24;14.18;;;9.95;;
8415;SDS011;4245;42.120;24.732;2023-08-06T08:05:54;10.43;;;8.90;;
8415;SDS011;4245;42.120;24.732;2023-08-06T08:08:22;13.00;;;10.47;;
8415;SDS011;4245;42.120;24.732;2023-08-06T08:10:49;11.30;;;10.20;;
8415;SDS011;4245;42.120;24.732;2023-08-06T08:13:17;13.17;;;10.30;;
8415;SDS011;4245;42.120;24.732;2023-08-06T08:15:45;11.60;;;10.40;;
8415;SDS011;4245;42.120;24.732;2023-08-06T08:18:12;10.70;;;9.60;;
8415;SDS011;4245;42.120;24.732;2023-08-06T08:20:39;11.33;;;9.37;;
8415;SDS011;4245;42.120;24.732;2023-08-06T08:23:06;12.57;;;9.40;;
8415;SDS011;4245;42.120;24.732;2023-08-06T08:25:33;11.47;;;9.70;;
8415;SDS011;4245;42.120;24.732;2023-08-06T08:28:00;13.63;;;10.20;;
8415;SDS011;4245;42.120;24.732;2023-08-06T08:30:28;12.47;;;9.93;;
8415;SDS011;4245;42.120;24.732;2023-08-06T08:32:55;10.27;;;9.17;;
8415;SDS011;4245;42.120;24.732;2023-08-06T08:35:22;10.00;;;8.63;;
8415;SDS011;4245;42.120;24.732;2023-08-06T08:37:49;9.13;;;8.13;;
8415;SDS011;4245;42.120;24.732;2023-08-06T08:40:16;10.10;;;7.53;;
8415;SDS011;4245;42.120;24.732;2023-08-06T08:42:44;8.83;;;7.60;;
8415;SDS011;4245;42.120;24.732;2023-08-06T08:45:11;8.13;;;7.33;;
8415;SDS011;4245;42.120;24.732;2023-08-06T08:47:42;10.30;;;7.90;;
8415;SDS011;4245;42.120;24.732;2023-08-06T08:50:09;11.00;;;8.53;;
8415;SDS011;4245;42.120;24.732;2023-08-06T08:52:38;10.97;;;8.30;;
8415;SDS011;4245;42.120;24.732;2023-08-06T08:55:07;10.53;;;8.23;;
8415;SDS011;4245;42.120;24.732;2023-08-06T08:57:34;17.57;;;9.33;;
8415;SDS011;4245;42.120;24.732;2023-08-06T09:00:02;9.80;;;8.80;;
8415;SDS011;4245;42.120;24.732;2023-08-06T09:02:30;9.60;;;8.47;;
8415;SDS011;4245;42.120;24.732;2023-08-06T09:05:00;9.98;;;8.88;;
8415;SDS011;4245;42.120;24.732;2023-08-06T09:07:30;11.52;;;8.40;;
8415;SDS011;4245;42.120;24.732;2023-08-06T09:10:02;9.57;;;8.35;;
8415;SDS011;4245;42.120;24.732;2023-08-06T09:12:30;12.30;;;10.88;;
8415;SDS011;4245;42.120;24.732;2023-08-06T09:14:57;12.13;;;8.65;;
8415;SDS011;4245;42.120;24.732;2023-08-06T09:17:25;8.98;;;8.02;;
8415;SDS011;4245;42.120;24.732;2023-08-06T09:19:53;11.40;;;8.25;;
8415;SDS011;4245;42.120;24.732;2023-08-06T09:22:21;9.77;;;7.70;;
8415;SDS011;4245;42.120;24.732;2023-08-06T09:24:49;8.45;;;7.50;;
8415;SDS011;4245;42.120;24.732;2023-08-06T09:27:16;10.32;;;7.32;;
8415;SDS011;4245;42.120;24.732;2023-08-06T09:29:43;7.35;;;6.65;;
8415;SDS011;4245;42.120;24.732;2023-08-06T09:32:11;6.53;;;5.93;;
8415;SDS011;4245;42.120;24.732;2023-08-06T09:34:38;7.88;;;5.25;;
8415;SDS011;4245;42.120;24.732;2023-08-06T09:37:07;6.30;;;5.70;;
8415;SDS011;4245;42.120;24.732;2023-08-06T09:39:38;5.20;;;4.72;;
8415;SDS011;4245;42.120;24.732;2023-08-06T09:42:06;6.90;;;5.30;;
8415;SDS011;4245;42.120;24.732;2023-08-06T09:44:33;8.90;;;6.63;;
8415;SDS011;4245;42.120;24.732;2023-08-06T09:47:01;6.18;;;5.60;;
8415;SDS011;4245;42.120;24.732;2023-08-06T09:49:40;7.10;;;6.40;;
8415;SDS011;4245;42.120;24.732;2023-08-06T09:52:09;7.68;;;6.88;;
8415;SDS011;4245;42.120;24.732;2023-08-06T09:54:39;9.65;;;8.75;;
8415;SDS011;4245;42.120;24.732;2023-08-06T09:57:06;8.10;;;7.40;;
8415;SDS011;4245;42.120;24.732;2023-08-06T09:59:33;8.52;;;7.72;;
8415;SDS011;4245;42.120;24.732;2023-08-06T10:02:01;8.80;;;7.90;;
8415;SDS011;4245;42.120;24.732;2023-08-06T10:04:34;8.43;;;7.55;;
8415;SDS011;4245;42.120;24.732;2023-08-06T10:07:01;8.43;;;7.60;;
8415;SDS011;4245;42.120;24.732;2023-08-06T10:09:28;9.10;;;8.20;;
8415;SDS011;4245;42.120;24.732;2023-08-06T10:11:56;9.43;;;8.63;;
8415;SDS011;4245;42.120;24.732;2023-08-06T10:14:27;8.77;;;7.78;;
8415;SDS011;4245;42.120;24.732;2023-08-06T10:16:57;9.38;;;8.48;;
8415;SDS011;4245;42.120;24.732;2023-08-06T10:19:25;8.73;;;7.82;;
8415;SDS011;4245;42.120;24.732;2023-08-06T10:22:08;8.13;;;7.32;;
8415;SDS011;4245;42.120;24.732;2023-08-06T10:24:46;7.82;;;7.13;;
8415;SDS011;4245;42.120;24.732;2023-08-06T10:27:17;7.95;;;7.25;;
8415;SDS011;4245;42.120;24.732;2023-08-06T10:29:47;8.50;;;7.70;;
8415;SDS011;4245;42.120;24.732;2023-08-06T10:32:14;9.95;;;8.98;;
8415;SDS011;4245;42.120;24.732;2023-08-06T10:34:55;7.15;;;6.40;;
8415;SDS011;4245;42.120;24.732;2023-08-06T10:37:23;7.07;;;6.43;;
8415;SDS011;4245;42.120;24.732;2023-08-06T10:39:51;6.85;;;6.25;;
8415;SDS011;4245;42.120;24.732;2023-08-06T10:42:23;8.18;;;7.07;;
8415;SDS011;4245;42.120;24.732;2023-08-06T10:45:15;7.18;;;6.53;;
8415;SDS011;4245;42.120;24.732;2023-08-06T10:47:44;7.50;;;6.80;;
8415;SDS011;4245;42.120;24.732;2023-08-06T10:50:12;7.28;;;6.57;;
8415;SDS011;4245;42.120;24.732;2023-08-06T10:52:41;7.32;;;6.63;;
8415;SDS011;4245;42.120;24.732;2023-08-06T10:55:08;7.80;;;7.00;;
8415;SDS011;4245;42.120;24.732;2023-08-06T10:57:37;7.13;;;6.50;;
8415;SDS011;4245;42.120;24.732;2023-08-06T11:00:04;6.93;;;6.32;;
8415;SDS011;4245;42.120;24.732;2023-08-06T11:02:33;6.72;;;6.13;;
8415;SDS011;4245;42.120;24.732;2023-08-06T11:05:07;7.22;;;6.40;;
8415;SDS011;4245;42.120;24.732;2023-08-06T11:07:35;6.65;;;6.05;;
8415;SDS011;4245;42.120;24.732;2023-08-06T11:10:02;6.70;;;6.10;;
8415;SDS011;4245;42.120;24.732;2023-08-06T11:12:30;6.25;;;5.75;;
8415;SDS011;4245;42.120;24.732;2023-08-06T11:14:58;6.75;;;6.15;;
8415;SDS011;4245;42.120;24.732;2023-08-06T11:17:26;5.97;;;5.47;;
8415;SDS011;4245;42.120;24.732;2023-08-06T11:19:54;6.00;;;5.50;;
8415;SDS011;4245;42.120;24.732;2023-08-06T11:22:21;6.72;;;6.10;;
8415;SDS011;4245;42.120;24.732;2023-08-06T11:24:48;5.93;;;5.43;;
8415;SDS011;4245;42.120;24.732;2023-08-06T11:27:15;7.40;;;6.70;;
8415;SDS011;4245;42.120;24.732;2023-08-06T11:29:43;6.03;;;5.40;;
8415;SDS011;4245;42.120;24.732;2023-08-06T11:32:12;5.72;;;5.22;;
8415;SDS011;4245;42.120;24.732;2023-08-06T11:34:39;5.78;;;5.15;;
8415;SDS011;4245;42.120;24.732;2023-08-06T11:37:06;6.32;;;5.72;;
8415;SDS011;4245;42.120;24.732;2023-08-06T11:39:34;6.85;;;6.15;;
8415;SDS011;4245;42.120;24.732;2023-08-06T11:42:02;5.68;;;5.18;;
8415;SDS011;4245;42.120;24.732;2023-08-06T11:44:30;6.00;;;5.40;;
8415;SDS011;4245;42.120;24.732;2023-08-06T11:46:58;6.18;;;5.32;;
8415;SDS011;4245;42.120;24.732;2023-08-06T11:49:40;6.55;;;5.22;;
8415;SDS011;4245;42.120;24.732;2023-08-06T11:52:10;5.47;;;4.82;;
8415;SDS011;4245;42.120;24.732;2023-08-06T11:54:40;6.93;;;6.13;;
8415;SDS011;4245;42.120;24.732;2023-08-06T11:57:07;7.20;;;6.50;;
8415;SDS011;4245;42.120;24.732;2023-08-06T11:59:34;5.55;;;4.45;;
8415;SDS011;4245;42.120;24.732;2023-08-06T12:02:01;4.57;;;4.18;;
8415;SDS011;4245;42.120;24.732;2023-08-06T12:04:30;4.97;;;3.75;;
8415;SDS011;4245;42.120;24.732;2023-08-06T12:07:05;4.78;;;3.30;;
8415;SDS011;4245;42.120;24.732;2023-08-06T12:09:33;5.30;;;3.40;;
8415;SDS011;4245;42.120;24.732;2023-08-06T12:12:01;4.13;;;3.67;;
8415;SDS011;4245;42.120;24.732;2023-08-06T12:14:29;4.50;;;3.67;;
8415;SDS011;4245;42.120;24.732;2023-08-06T12:16:56;4.43;;;3.97;;
8415;SDS011;4245;42.120;24.732;2023-08-06T12:19:23;4.40;;;3.75;;
8415;SDS011;4245;42.120;24.732;2023-08-06T12:21:51;5.32;;;3.90;;
8415;SDS011;4245;42.120;24.732;2023-08-06T12:24:19;5.15;;;3.97;;
8415;SDS011;4245;42.120;24.732;2023-08-06T12:26:46;5.30;;;4.00;;
8415;SDS011;4245;42.120;24.732;2023-08-06T12:29:13;6.43;;;3.88;;
8415;SDS011;4245;42.120;24.732;2023-08-06T12:31:40;4.90;;;4.40;;
8415;SDS011;4245;42.120;24.732;2023-08-06T12:34:07;4.07;;;3.72;;
8415;SDS011;4245;42.120;24.732;2023-08-06T12:36:33;6.03;;;4.50;;
8415;SDS011;4245;42.120;24.732;2023-08-06T12:39:00;4.18;;;3.78;;
8415;SDS011;4245;42.120;24.732;2023-08-06T12:41:29;3.85;;;3.45;;
8415;SDS011;4245;42.120;24.732;2023-08-06T12:43:55;4.38;;;3.50;;
8415;SDS011;4245;42.120;24.732;2023-08-06T12:46:22;6.10;;;5.50;;
8415;SDS011;4245;42.120;24.732;2023-08-06T12:48:49;6.30;;;5.07;;
8415;SDS011;4245;42.120;24.732;2023-08-06T12:51:16;5.20;;;3.53;;
8415;SDS011;4245;42.120;24.732;2023-08-06T12:53:43;5.13;;;4.28;;
8415;SDS011;4245;42.120;24.732;2023-08-06T12:56:10;4.82;;;3.45;;
8415;SDS011;4245;42.120;24.732;2023-08-06T12:58:38;5.32;;;3.60;;
8415;SDS011;4245;42.120;24.732;2023-08-06T13:01:07;5.10;;;4.60;;
8415;SDS011;4245;42.120;24.732;2023-08-06T13:03:33;5.05;;;4.30;;
8415;SDS011;4245;42.120;24.732;2023-08-06T13:06:00;7.03;;;3.92;;
8415;SDS011;4245;42.120;24.732;2023-08-06T13:08:27;4.38;;;3.30;;
8415;SDS011;4245;42.120;24.732;2023-08-06T13:10:54;4.07;;;3.67;;
8415;SDS011;4245;42.120;24.732;2023-08-06T13:13:21;3.90;;;3.60;;
8415;SDS011;4245;42.120;24.732;2023-08-06T13:15:49;4.20;;;3.40;;
8415;SDS011;4245;42.120;24.732;2023-08-06T13:18:16;4.03;;;3.60;;
8415;SDS011;4245;42.120;24.732;2023-08-06T13:20:43;3.97;;;3.40;;
8415;SDS011;4245;42.120;24.732;2023-08-06T13:23:12;3.83;;;3.53;;
8415;SDS011;4245;42.120;24.732;2023-08-06T13:25:41;4.43;;;3.40;;
8415;SDS011;4245;42.120;24.732;2023-08-06T13:28:08;5.10;;;4.22;;
8415;SDS011;4245;42.120;24.732;2023-08-06T13:30:35;4.38;;;3.60;;
8415;SDS011;4245;42.120;24.732;2023-08-06T13:33:08;6.28;;;4.10;;
8415;SDS011;4245;42.120;24.732;2023-08-06T13:35:35;4.35;;;3.95;;
8415;SDS011;4245;42.120;24.732;2023-08-06T13:38:02;3.42;;;3.13;;
8415;SDS011;4245;42.120;24.732;2023-08-06T13:40:29;5.55;;;3.58;;
8415;SDS011;4245;42.120;24.732;2023-08-06T13:42:58;5.57;;;3.40;;
8415;SDS011;4245;42.120;24.732;2023-08-06T13:45:25;4.65;;;3.58;;
8415;SDS011;4245;42.120;24.732;2023-08-06T13:47:52;3.50;;;3.20;;
8415;SDS011;4245;42.120;24.732;2023-08-06T13:50:23;3.67;;;3.28;;
8415;SDS011;4245;42.120;24.732;2023-08-06T13:52:51;4.88;;;3.28;;
8415;SDS011;4245;42.120;24.732;2023-08-06T13:55:20;3.42;;;3.13;;
8415;SDS011;4245;42.120;24.732;2023-08-06T13:57:48;4.10;;;3.10;;
8415;SDS011;4245;42.120;24.732;2023-08-06T14:00:15;4.60;;;3.03;;
8415;SDS011;4245;42.120;24.732;2023-08-06T14:02:42;3.63;;;2.78;;
8415;SDS011;4245;42.120;24.732;2023-08-06T14:05:10;5.65;;;3.28;;
8415;SDS011;4245;42.120;24.732;2023-08-06T14:07:38;5.88;;;3.78;;
8415;SDS011;4245;42.120;24.732;2023-08-06T14:10:06;4.63;;;3.40;;
8415;SDS011;4245;42.120;24.732;2023-08-06T14:12:34;3.85;;;3.17;;
8415;SDS011;4245;42.120;24.732;2023-08-06T14:15:01;5.28;;;3.03;;
8415;SDS011;4245;42.120;24.732;2023-08-06T14:17:29;4.85;;;2.92;;
8415;SDS011;4245;42.120;24.732;2023-08-06T14:19:56;3.67;;;3.30;;
8415;SDS011;4245;42.120;24.732;2023-08-06T14:22:23;3.60;;;3.20;;
8415;SDS011;4245;42.120;24.732;2023-08-06T14:24:51;3.70;;;3.30;;
8415;SDS011;4245;42.120;24.732;2023-08-06T14:27:18;6.82;;;3.70;;
8415;SDS011;4245;42.120;24.732;2023-08-06T14:29:45;5.20;;;2.72;;
8415;SDS011;4245;42.120;24.732;2023-08-06T14:32:12;3.55;;;3.17;;
8415;SDS011;4245;42.120;24.732;2023-08-06T14:34:40;6.28;;;3.10;;
8415;SDS011;4245;42.120;24.732;2023-08-06T14:37:06;6.43;;;3.10;;
8415;SDS011;4245;42.120;24.732;2023-08-06T14:39:36;3.70;;;3.08;;
8415;SDS011;4245;42.120;24.732;2023-08-06T14:42:04;5.22;;;3.28;;
8415;SDS011;4245;42.120;24.732;2023-08-06T14:44:31;4.03;;;3.22;;
8415;SDS011;4245;42.120;24.732;2023-08-06T14:46:58;4.43;;;3.00;;
8415;SDS011;4245;42.120;24.732;2023-08-06T14:49:25;4.80;;;3.10;;
8415;SDS011;4245;42.120;24.732;2023-08-06T14:51:52;5.50;;;3.20;;
8415;SDS011;4245;42.120;24.732;2023-08-06T14:54:19;6.07;;;2.90;;
8415;SDS011;4245;42.120;24.732;2023-08-06T14:56:46;3.25;;;2.70;;